Hakuhomaru — JJ4011 — position and weather

sailwx.info

Track history (hours):
 
Tides and Currents Weather Stations Pressure Air Temp Water Temp Dewpoint Dewpoint Depression Visibility Wind Speed Wind Dir Waves Ship Positions

Hakuhomaru

Last reported at 2014-Dec-21 05:33 UTC. Time now 2014-Dec-21 20:08 UTC.
Position N 34°41' E 135°12'.

Length 38 m; draft 3.3 m.

Type: Tug. MMSI: 431401584.

Date/timePositionNaut miles runAvg speedWind from/ knotsBaromVisibWave heightAir tempDewpointWater temp
2014-Dec-21 05:33N 34°41' E 135°12'0 0.0
2014-Dec-21 04:33N 34°41' E 135°12'0 0.0
2014-Dec-21 03:33N 34°41' E 135°12'0 0.0
2014-Dec-21 02:33N 34°41' E 135°12'0 0.0
2014-Dec-21 01:33N 34°41' E 135°12'0 0.0
2014-Dec-21 00:33N 34°41' E 135°12'3 2.8
2014-Dec-20 23:33N 34°41' E 135°16'2 2.4
2014-Dec-20 22:33N 34°40' E 135°18'5 5.1
2014-Dec-20 21:33N 34°41' E 135°12'0 0.0
2014-Dec-20 20:33N 34°41' E 135°12'0 0.0
2014-Dec-20 06:33N 34°41' E 135°12'0 0.0
2014-Dec-20 05:33N 34°41' E 135°12'0 0.0
2014-Dec-20 04:33N 34°41' E 135°12'0 0.0
2014-Dec-20 03:33N 34°41' E 135°12'0 0.0
2014-Dec-20 02:33N 34°41' E 135°12'2 2.1
2014-Dec-20 01:33N 34°40' E 135°15'1 1.0
2014-Dec-20 00:33N 34°39' E 135°15'3 3.0
2014-Dec-19 23:33N 34°41' E 135°13'5 4.5
2014-Dec-19 22:33N 34°41' E 135°18'2 2.3
2014-Dec-19 21:33N 34°41' E 135°15'3 2.6
2014-Dec-19 20:33N 34°41' E 135°12'0 0.0
2014-Dec-19 10:13N 34°41' E 135°12'1 1.9
2014-Dec-19 09:33N 34°41' E 135°14'2 2.3
2014-Dec-19 08:33N 34°41' E 135°17'0 0.0
2014-Dec-19 07:33N 34°41' E 135°17'1 0.8
2014-Dec-19 06:32N 34°41' E 135°17'1 0.9
2014-Dec-19 05:33N 34°41' E 135°16'0 0.0
2014-Dec-19 04:33N 34°41' E 135°16'2 1.8
2014-Dec-19 03:33N 34°40' E 135°14'0 0.4
2014-Dec-19 02:33N 34°40' E 135°15'2 2.3
2014-Dec-19 01:33N 34°41' E 135°12'0 0.0
2014-Dec-19 00:33N 34°41' E 135°12'0 0.0
2014-Dec-18 23:33N 34°41' E 135°12'0 0.0
2014-Dec-18 22:33N 34°41' E 135°12'0 0.0
2014-Dec-18 12:33N 34°41' E 135°12'2 2.5
2014-Dec-18 11:33N 34°41' E 135°15'2 2.5
2014-Dec-18 10:34N 34°41' E 135°12'0 0.0
2014-Dec-18 09:33N 34°41' E 135°12'2 1.6
2014-Dec-18 08:33N 34°39' E 135°11'2 1.6
2014-Dec-18 07:33N 34°41' E 135°11'1 0.8
2014-Dec-18 06:33N 34°41' E 135°12'0 0.0
2014-Dec-18 05:33N 34°41' E 135°12'0 0.0
2014-Dec-18 04:33N 34°41' E 135°12'1 1.0
2014-Dec-18 03:33N 34°41' E 135°13'3 2.6
2014-Dec-18 02:33N 34°39' E 135°15'0 0.4
2014-Dec-18 01:33N 34°39' E 135°15'0 0.0
2014-Dec-18 00:33N 34°39' E 135°15'0 0.0
2014-Dec-17 23:33N 34°39' E 135°15'3 3.1
2014-Dec-17 22:33N 34°41' E 135°17'2 1.7
2014-Dec-17 21:33N 34°41' E 135°15'3 2.5
2014-Dec-17 20:33N 34°41' E 135°12'0 0.0
2014-Dec-17 08:22N 34°41' E 135°12'6 7.5
2014-Dec-17 07:34N 34°42' E 135°20'4 3.7
2014-Dec-17 06:26N 34°40' E 135°24'1011.0
2014-Dec-17 05:34N 34°41' E 135°12'0 0.1
2014-Dec-17 04:34N 34°41' E 135°12'0 0.0
2014-Dec-17 03:34N 34°41' E 135°12'0 0.0
2014-Dec-17 02:33N 34°41' E 135°12'0 0.0
2014-Dec-17 01:34N 34°41' E 135°12'0 0.0
2014-Dec-17 00:34N 34°41' E 135°12'0 0.0
2014-Dec-16 23:34N 34°41' E 135°12'0 0.0
2014-Dec-16 22:34N 34°41' E 135°12'0 0.0
2014-Dec-15 10:23N 34°41' E 135°12'2 2.9
2014-Dec-15 09:33N 34°41' E 135°15'1 0.6
2014-Dec-15 08:33N 34°41' E 135°14'0 0.0
2014-Dec-15 07:33N 34°41' E 135°14'0 0.2
2014-Dec-15 06:33N 34°41' E 135°14'2 2.3
2014-Dec-15 05:33N 34°39' E 135°15'0 0.0
2014-Dec-15 04:33N 34°39' E 135°15'0 0.0
2014-Dec-15 03:33N 34°39' E 135°15'0 0.0
2014-Dec-15 02:33N 34°39' E 135°15'1 1.5
2014-Dec-15 01:33N 34°40' E 135°15'1 0.6
2014-Dec-15 00:33N 34°40' E 135°15'2 2.1
2014-Dec-14 23:33N 34°41' E 135°12'0 0.0
2014-Dec-14 22:32N 34°41' E 135°12'0 0.0
2014-Dec-14 06:22N 34°41' E 135°12'7 8.8
2014-Dec-14 05:33N 34°41' E 135°21'4 4.1
2014-Dec-14 04:33N 34°39' E 135°26'1 1.4
2014-Dec-14 03:33N 34°40' E 135°27'0 0.0
2014-Dec-14 02:33N 34°40' E 135°27'0 0.0
2014-Dec-14 01:33N 34°40' E 135°27'0 0.0
2014-Dec-14 00:33N 34°40' E 135°27'2 2.3
2014-Dec-13 23:33N 34°39' E 135°25'7 6.6
2014-Dec-13 22:33N 34°34' E 135°20'8 8.3
2014-Dec-13 21:33N 34°39' E 135°12'1 1.3
2014-Dec-13 20:33N 34°41' E 135°12'0 0.0
2014-Dec-13 15:04N 34°41' E 135°12'2 3.4
2014-Dec-13 14:33N 34°40' E 135°14'0 0.5
2014-Dec-13 13:33N 34°40' E 135°14'1 0.8
2014-Dec-13 12:33N 34°40' E 135°13'0 0.0
2014-Dec-13 11:33N 34°40' E 135°13'0 0.0
2014-Dec-13 10:33N 34°40' E 135°13'1 1.1
2014-Dec-13 09:33N 34°40' E 135°15'2 1.7
2014-Dec-13 08:33N 34°39' E 135°16'1 0.9
2014-Dec-13 07:33N 34°39' E 135°15'1 1.0
2014-Dec-13 06:33N 34°40' E 135°14'0 0.1
2014-Dec-13 05:33N 34°40' E 135°14'3 3.2
2014-Dec-13 04:33N 34°41' E 135°17'0 0.3
2014-Dec-13 03:33N 34°41' E 135°17'4 4.2
2014-Dec-13 02:33N 34°41' E 135°12'0 0.0
2014-Dec-13 01:33N 34°41' E 135°12'0 0.0
2014-Dec-13 00:33N 34°41' E 135°12'0 0.0
2014-Dec-12 23:33N 34°41' E 135°12'4 4.2
2014-Dec-12 22:32N 34°41' E 135°17'1 0.6
2014-Dec-12 21:33N 34°41' E 135°18'5 4.6
2014-Dec-12 20:33N 34°41' E 135°12'0 0.0
2014-Dec-12 06:33N 34°41' E 135°12'0 0.0
2014-Dec-12 05:33N 34°41' E 135°12'0 0.0
2014-Dec-12 04:33N 34°41' E 135°12'0 0.0
2014-Dec-12 03:33N 34°41' E 135°12'0 0.0
2014-Dec-12 02:33N 34°41' E 135°12'0 0.0
2014-Dec-12 01:33N 34°41' E 135°12'4 4.1
2014-Dec-12 00:32N 34°41' E 135°17'0 0.2
2014-Dec-11 23:33N 34°41' E 135°17'4 4.2
2014-Dec-11 22:33N 34°41' E 135°12'  
Track history (hours):
 
Tides and Currents Weather Stations Pressure Air Temp Water Temp Dewpoint Dewpoint Depression Visibility Wind Speed Wind Dir Waves Ship Positions

Hakuhomaru

Last reported at 2014-Dec-21 05:33 UTC. Time now 2014-Dec-21 20:08 UTC.
Position N 34°41' E 135°12'.

Length 38 m; draft 3.3 m.

Type: Tug. MMSI: 431401584.

Date/timePositionNaut miles runAvg speedWind from/ knotsBaromVisibWave heightAir tempDewpointWater temp
2014-Dec-21 05:33N 34°41' E 135°12'0 0.0
2014-Dec-21 04:33N 34°41' E 135°12'0 0.0
2014-Dec-21 03:33N 34°41' E 135°12'0 0.0
2014-Dec-21 02:33N 34°41' E 135°12'0 0.0
2014-Dec-21 01:33N 34°41' E 135°12'0 0.0
2014-Dec-21 00:33N 34°41' E 135°12'3 2.8
2014-Dec-20 23:33N 34°41' E 135°16'2 2.4
2014-Dec-20 22:33N 34°40' E 135°18'5 5.1
2014-Dec-20 21:33N 34°41' E 135°12'0 0.0
2014-Dec-20 20:33N 34°41' E 135°12'0 0.0
2014-Dec-20 06:33N 34°41' E 135°12'0 0.0
2014-Dec-20 05:33N 34°41' E 135°12'0 0.0
2014-Dec-20 04:33N 34°41' E 135°12'0 0.0
2014-Dec-20 03:33N 34°41' E 135°12'0 0.0
2014-Dec-20 02:33N 34°41' E 135°12'2 2.1
2014-Dec-20 01:33N 34°40' E 135°15'1 1.0
2014-Dec-20 00:33N 34°39' E 135°15'3 3.0
2014-Dec-19 23:33N 34°41' E 135°13'5 4.5
2014-Dec-19 22:33N 34°41' E 135°18'2 2.3
2014-Dec-19 21:33N 34°41' E 135°15'3 2.6
2014-Dec-19 20:33N 34°41' E 135°12'0 0.0
2014-Dec-19 10:13N 34°41' E 135°12'1 1.9
2014-Dec-19 09:33N 34°41' E 135°14'2 2.3
2014-Dec-19 08:33N 34°41' E 135°17'0 0.0
2014-Dec-19 07:33N 34°41' E 135°17'1 0.8
2014-Dec-19 06:32N 34°41' E 135°17'1 0.9
2014-Dec-19 05:33N 34°41' E 135°16'0 0.0
2014-Dec-19 04:33N 34°41' E 135°16'2 1.8
2014-Dec-19 03:33N 34°40' E 135°14'0 0.4
2014-Dec-19 02:33N 34°40' E 135°15'2 2.3
2014-Dec-19 01:33N 34°41' E 135°12'0 0.0
2014-Dec-19 00:33N 34°41' E 135°12'0 0.0
2014-Dec-18 23:33N 34°41' E 135°12'0 0.0
2014-Dec-18 22:33N 34°41' E 135°12'0 0.0
2014-Dec-18 12:33N 34°41' E 135°12'2 2.5
2014-Dec-18 11:33N 34°41' E 135°15'2 2.5
2014-Dec-18 10:34N 34°41' E 135°12'0 0.0
2014-Dec-18 09:33N 34°41' E 135°12'2 1.6
2014-Dec-18 08:33N 34°39' E 135°11'2 1.6
2014-Dec-18 07:33N 34°41' E 135°11'1 0.8
2014-Dec-18 06:33N 34°41' E 135°12'0 0.0
2014-Dec-18 05:33N 34°41' E 135°12'0 0.0
2014-Dec-18 04:33N 34°41' E 135°12'1 1.0
2014-Dec-18 03:33N 34°41' E 135°13'3 2.6
2014-Dec-18 02:33N 34°39' E 135°15'0 0.4
2014-Dec-18 01:33N 34°39' E 135°15'0 0.0
2014-Dec-18 00:33N 34°39' E 135°15'0 0.0
2014-Dec-17 23:33N 34°39' E 135°15'3 3.1
2014-Dec-17 22:33N 34°41' E 135°17'2 1.7
2014-Dec-17 21:33N 34°41' E 135°15'3 2.5
2014-Dec-17 20:33N 34°41' E 135°12'0 0.0
2014-Dec-17 08:22N 34°41' E 135°12'6 7.5
2014-Dec-17 07:34N 34°42' E 135°20'4 3.7
2014-Dec-17 06:26N 34°40' E 135°24'1011.0
2014-Dec-17 05:34N 34°41' E 135°12'0 0.1
2014-Dec-17 04:34N 34°41' E 135°12'0 0.0
2014-Dec-17 03:34N 34°41' E 135°12'0 0.0
2014-Dec-17 02:33N 34°41' E 135°12'0 0.0
2014-Dec-17 01:34N 34°41' E 135°12'0 0.0
2014-Dec-17 00:34N 34°41' E 135°12'0 0.0
2014-Dec-16 23:34N 34°41' E 135°12'0 0.0
2014-Dec-16 22:34N 34°41' E 135°12'0 0.0
2014-Dec-15 10:23N 34°41' E 135°12'2 2.9
2014-Dec-15 09:33N 34°41' E 135°15'1 0.6
2014-Dec-15 08:33N 34°41' E 135°14'0 0.0
2014-Dec-15 07:33N 34°41' E 135°14'0 0.2
2014-Dec-15 06:33N 34°41' E 135°14'2 2.3
2014-Dec-15 05:33N 34°39' E 135°15'0 0.0
2014-Dec-15 04:33N 34°39' E 135°15'0 0.0
2014-Dec-15 03:33N 34°39' E 135°15'0 0.0
2014-Dec-15 02:33N 34°39' E 135°15'1 1.5
2014-Dec-15 01:33N 34°40' E 135°15'1 0.6
2014-Dec-15 00:33N 34°40' E 135°15'2 2.1
2014-Dec-14 23:33N 34°41' E 135°12'0 0.0
2014-Dec-14 22:32N 34°41' E 135°12'0 0.0
2014-Dec-14 06:22N 34°41' E 135°12'7 8.8
2014-Dec-14 05:33N 34°41' E 135°21'4 4.1
2014-Dec-14 04:33N 34°39' E 135°26'1 1.4
2014-Dec-14 03:33N 34°40' E 135°27'0 0.0
2014-Dec-14 02:33N 34°40' E 135°27'0 0.0
2014-Dec-14 01:33N 34°40' E 135°27'0 0.0
2014-Dec-14 00:33N 34°40' E 135°27'2 2.3
2014-Dec-13 23:33N 34°39' E 135°25'7 6.6
2014-Dec-13 22:33N 34°34' E 135°20'8 8.3
2014-Dec-13 21:33N 34°39' E 135°12'1 1.3
2014-Dec-13 20:33N 34°41' E 135°12'0 0.0
2014-Dec-13 15:04N 34°41' E 135°12'2 3.4
2014-Dec-13 14:33N 34°40' E 135°14'0 0.5
2014-Dec-13 13:33N 34°40' E 135°14'1 0.8
2014-Dec-13 12:33N 34°40' E 135°13'0 0.0
2014-Dec-13 11:33N 34°40' E 135°13'0 0.0
2014-Dec-13 10:33N 34°40' E 135°13'1 1.1
2014-Dec-13 09:33N 34°40' E 135°15'2 1.7
2014-Dec-13 08:33N 34°39' E 135°16'1 0.9
2014-Dec-13 07:33N 34°39' E 135°15'1 1.0
2014-Dec-13 06:33N 34°40' E 135°14'0 0.1
2014-Dec-13 05:33N 34°40' E 135°14'3 3.2
2014-Dec-13 04:33N 34°41' E 135°17'0 0.3
2014-Dec-13 03:33N 34°41' E 135°17'4 4.2
2014-Dec-13 02:33N 34°41' E 135°12'0 0.0
2014-Dec-13 01:33N 34°41' E 135°12'0 0.0
2014-Dec-13 00:33N 34°41' E 135°12'0 0.0
2014-Dec-12 23:33N 34°41' E 135°12'4 4.2
2014-Dec-12 22:32N 34°41' E 135°17'1 0.6
2014-Dec-12 21:33N 34°41' E 135°18'5 4.6
2014-Dec-12 20:33N 34°41' E 135°12'0 0.0
2014-Dec-12 06:33N 34°41' E 135°12'0 0.0
2014-Dec-12 05:33N 34°41' E 135°12'0 0.0
2014-Dec-12 04:33N 34°41' E 135°12'0 0.0
2014-Dec-12 03:33N 34°41' E 135°12'0 0.0
2014-Dec-12 02:33N 34°41' E 135°12'0 0.0
2014-Dec-12 01:33N 34°41' E 135°12'4 4.1
2014-Dec-12 00:32N 34°41' E 135°17'0 0.2
2014-Dec-11 23:33N 34°41' E 135°17'4 4.2
2014-Dec-11 22:33N 34°41' E 135°12'  

Dump ship's entire track history